ANTO2: Kiamichi River, Antlers, OKla

                                SHEF ID:       ANTO2     Kiamichi River near Antlers, OK
STATION TYPE:
Regulating: Stage = 22.00, Flow = 20000

PRECIP PRECIP(A) STAGE RIV-FLOW BAT-LOAD
in in ft cfs volt
Ccp-Rev Ccp-Rev Ccp-Rev Ccp-Rev Ccp-Rev
(America/Chicago)
02/16 00:00 0.00 ---- 11.77 6110 12.57
02/16 01:00 0.00 ---- 11.60 5930 12.55
02/16 02:00 0.00 ---- 11.44 5770 12.53
02/16 03:00 0.00 ---- 11.27 5590 12.50
02/16 04:00 0.00 ---- 11.13 5460 12.49
02/16 05:00 0.00 ---- 10.96 5280 12.47
02/16 06:00 0.00 ---- 10.81 5140 12.46
02/16 07:00 0.00 ---- 10.65 4980 12.44
02/16 08:00 0.00 ---- 10.50 4850 12.46
02/16 09:00 0.01 ---- 10.34 4690 12.59
02/16 10:00 0.00 ---- 10.18 4550 13.41
02/16 11:00 0.00 ---- 9.99 4360 13.49
02/16 12:00 0.00 ---- 9.83 4220 13.32
02/16 13:00 0.00 ---- 9.65 4060 13.09
02/16 14:00 0.00 ---- 9.48 3910 13.01
02/16 15:00 0.00 ---- 9.31 3760 12.96
02/16 16:00 0.00 ---- 9.16 3640 12.93
02/16 17:00 0.00 ---- 8.99 3490 12.92
02/16 18:00 0.00 ---- 8.85 3380 12.86
02/16 19:00 0.00 ---- 8.71 3260 12.74
02/16 20:00 0.00 ---- 8.57 3150 12.70
02/16 21:00 0.00 ---- 8.45 3060 12.65
02/16 22:00 0.00 ---- 8.32 3010 12.62
02/16 23:00 0.00 ---- 8.26 ---- 12.59
Data processed at Tue 17Feb2026 05:32 GMT

NOTICE: If you are parsing this page

Please convert to using our Data API. Starting early 2026 we will be migrating to: https://water.usace.army.mil with modern pages rendered in JavaScript. When this migration completes you will no longer be able to scrape this page! CWMSDataAPI (CDA)

Timeseries IDs (TSIDs)

TSIDs used from left to right in the data table
ANTL.Precip-Inc.Total.1Hour.1Hour.Ccp-Rev
ANTL.Precip-Inc Alt.Total.1Hour.1Hour.Ccp-Rev
ANTL.Stage.Inst.1Hour.0.Ccp-Rev
ANTL.Flow.Inst.1Hour.0.Ccp-Rev
ANTL.Volt-Battery Load.Inst.1Hour.0.Ccp-Rev

                            

All information presented herein is the property of the government of the United States of America and may be revised or deleted at any time without prior notice. Dissemination of this information without the expressed written consent of the Public Affairs Office, Tulsa District U.S. Army Corps of Engineers is strictly prohibited. These data are gathered electronically and, as presented, have NOT undergone any form of quality control. These data are NOT guaranteed to be valid or correct.